x

Columbia River Entrance - Saturn Station #02 Offshore (46096) Weather Station

1:30pm - Sat 18th Aug 2018 All times are PDT. -7 hours from GMT.

  • Wind
    11mph, 11mph gusts
  • Sea Temp 59°f
  • Air Temp 56°f
  • Sea Pressure 1023.4mb
  • Columbia River Entrance - Saturn Station #02 Offshore
  • Columbia River Entrance - Saturn Station #02 Offshore

More Historic Weather Station data

Upgrade to MSW Pro to gain access to the past 30 days of data for over 8000 Wavebouys and Weather Stations around the globe.

Join

Comparision Forecast

View Surf forecast
   
Sat 08/18 1:30pm 11 11 mph 1023.4mb 59f 56f
1:00pm 9 11 mph 1023.7mb 60f 56f
11:30am 7 7 mph 1024.3mb 61f 54f
11:00am 9 11 mph 1024.4mb 61f 54f
9:30am 7 9 mph 1024.6mb 60f 52f
9:00am 7 9 mph 1024.7mb 58f 52f
7:30am 7 7 mph 1024.2mb 55f 51f
7:00am 7 9 mph 1024mb 55f 51f
5:30am 7 9 mph 1024.5mb 55f 51f
5:00am 7 9 mph 1024.5mb 55f 51f
3:30am 9 11 mph 1024.6mb 56f 52f
3:00am 9 16 mph 1024.5mb 56f 52f
1:30am 11 11 mph 1025.1mb 55f 52f
1:00am 11 11 mph 1025.1mb 55f 52f
Fri 08/17 11:30pm 11 13 mph 1025.1mb 55f 52f
11:00pm 11 13 mph 1025.3mb 55f 53f
7:30pm 16 18 mph 1024.9mb 62f 55f
7:00pm 13 18 mph 1025.2mb 61f 56f
5:30pm 13 13 mph 1025.5mb 58f 56f
5:00pm 13 16 mph 1025.6mb 58f 56f
3:30pm 11 13 mph 1026.1mb 59f 56f
3:00pm 9 11 mph 1026.2mb 59f 57f
1:30pm 9 11 mph 1026.1mb 60f 58f
1:00pm 7 9 mph 1025.9mb 59f 58f
11:30am 7 7 mph 1026.3mb 60f 59f
11:00am 7 7 mph 1026.1mb 60f 58f
9:30am 7 7 mph 1025.5mb 60f 57f
9:00am 7 7 mph 1025.5mb 61f 56f
7:30am 7 9 mph 1024.9mb 57f 55f
7:00am 7 9 mph 1024.8mb 57f 53f
5:30am 7 9 mph 1023.9mb 56f 53f
5:00am 7 7 mph 1024mb 56f 53f
3:30am 9 11 mph 1024mb 55f 52f
3:00am 9 11 mph 1023.8mb 56f 52f
1:30am 11 13 mph 1023.8mb 56f 53f
1:00am 9 11 mph 1024mb 56f 53f
Thu 08/16 11:30pm 11 13 mph 1023.3mb 56f 52f
11:00pm 13 16 mph 1023.6mb 56f 52f
9:30pm 13 13 mph 1022.7mb 58f 54f
9:00pm 16 18 mph 1022.4mb 58f 54f
5:30pm 16 18 mph 1021.5mb 57f 56f
5:00pm 16 18 mph 1021.3mb 58f 56f
3:30pm 13 16 mph 1021.4mb 58f 56f
3:00pm 13 16 mph 1021.6mb 58f 56f
1:30pm 11 13 mph 1021.5mb 58f 56f
1:00pm 13 16 mph 1021.5mb 58f 56f
11:30am 11 13 mph 1021mb 58f 55f
11:00am 9 11 mph 1020.8mb 58f 55f
9:30am 9 11 mph 1020.3mb 58f 54f
9:00am  -  mph - 58f -
5:30am 11 11 mph 1018.5mb 57f 53f
5:00am 9 11 mph 1018.4mb 57f 53f
3:30am 9 9 mph 1018mb 58f 52f
3:00am 7 9 mph 1018mb 58f 52f
1:30am 7 7 mph 1017.5mb 56f 52f
1:00am 7 11 mph 1017.3mb 55f 52f
Wed 08/15 11:30pm 4 4 mph 1016.9mb 56f 52f
11:00pm 2 4 mph 1016.7mb 57f 52f
9:30pm 9 9 mph 1016.4mb 60f 53f
9:00pm 7 7 mph 1015.9mb 60f 54f
7:30pm 7 9 mph 1015.4mb 60f 55f
7:00pm 11 11 mph 1015.2mb 59f 54f
5:30pm 4 7 mph 1015.1mb 58f 55f
5:00pm 9 11 mph 1014.9mb 59f 55f
3:30pm 9 13 mph 1015mb 58f 56f
3:00pm 9 11 mph 1014.9mb 59f 56f
1:30pm 4 7 mph 1015.2mb 56f 55f
1:00pm 2 4 mph 1015.3mb 57f 55f
11:30am 4 7 mph 1015.4mb 54f 54f
11:00am 2 4 mph 1015.3mb 54f 54f
9:30am 7 9 mph 1015.3mb 60f 53f
9:00am 9 9 mph 1015.3mb 60f 53f
7:30am 11 11 mph 1014.6mb 60f 53f
7:00am 7 9 mph 1014.6mb 60f 52f
5:30am 9 11 mph 1014.2mb 57f 52f
5:00am 9 9 mph 1014.2mb 58f 53f
3:30am 9 11 mph 1013.9mb 57f 53f
3:00am 9 11 mph 1013.5mb 56f 53f
1:30am 9 11 mph 1013.5mb 58f 53f
1:00am 11 13 mph 1013.5mb 59f 53f
Tue 08/14 11:30pm 9 11 mph 1012.9mb 57f 53f
11:00pm 9 11 mph 1012.9mb 58f 53f